sensor_id;sensor_type;location;lat;lon;timestamp;P1;P2;P0
49343;PMS5003;35210;41.606;-87.602;2023-05-21T00:00:07;5.40;5.40;3.00
49343;PMS5003;35210;41.606;-87.602;2023-05-21T00:02:39;5.20;4.20;3.00
49343;PMS5003;35210;41.606;-87.602;2023-05-21T00:05:07;4.60;1.80;0.80
49343;PMS5003;35210;41.606;-87.602;2023-05-21T00:07:39;5.80;5.00;4.00
49343;PMS5003;35210;41.606;-87.602;2023-05-21T00:10:07;6.40;5.20;3.00
49343;PMS5003;35210;41.606;-87.602;2023-05-21T00:12:36;4.40;3.00;3.00
49343;PMS5003;35210;41.606;-87.602;2023-05-21T00:15:04;2.40;2.40;2.00
49343;PMS5003;35210;41.606;-87.602;2023-05-21T00:17:33;5.80;4.60;3.00
49343;PMS5003;35210;41.606;-87.602;2023-05-21T00:20:03;5.40;5.00;2.80
49343;PMS5003;35210;41.606;-87.602;2023-05-21T00:22:34;4.00;4.00;3.00
49343;PMS5003;35210;41.606;-87.602;2023-05-21T00:25:02;5.20;3.60;2.40
49343;PMS5003;35210;41.606;-87.602;2023-05-21T00:27:30;3.00;3.00;3.00
49343;PMS5003;35210;41.606;-87.602;2023-05-21T00:29:59;3.00;3.00;2.00
49343;PMS5003;35210;41.606;-87.602;2023-05-21T00:32:27;3.40;3.40;2.00
49343;PMS5003;35210;41.606;-87.602;2023-05-21T00:34:55;5.00;5.00;4.00
49343;PMS5003;35210;41.606;-87.602;2023-05-21T00:37:25;6.80;6.20;5.60
49343;PMS5003;35210;41.606;-87.602;2023-05-21T00:39:54;5.00;5.00;4.00
49343;PMS5003;35210;41.606;-87.602;2023-05-21T00:42:22;5.20;5.20;4.00
49343;PMS5003;35210;41.606;-87.602;2023-05-21T00:44:51;5.20;5.20;4.00
49343;PMS5003;35210;41.606;-87.602;2023-05-21T00:47:20;6.80;6.60;5.80
49343;PMS5003;35210;41.606;-87.602;2023-05-21T00:49:48;6.20;6.00;4.40
49343;PMS5003;35210;41.606;-87.602;2023-05-21T00:52:17;6.40;6.00;3.00
49343;PMS5003;35210;41.606;-87.602;2023-05-21T00:54:49;5.40;3.20;2.40
49343;PMS5003;35210;41.606;-87.602;2023-05-21T00:57:18;6.80;5.40;4.00
49343;PMS5003;35210;41.606;-87.602;2023-05-21T00:59:49;4.20;3.00;2.00
49343;PMS5003;35210;41.606;-87.602;2023-05-21T01:02:19;4.80;4.80;4.00
49343;PMS5003;35210;41.606;-87.602;2023-05-21T01:04:48;5.20;5.20;2.80
49343;PMS5003;35210;41.606;-87.602;2023-05-21T01:07:17;6.00;4.80;3.80
49343;PMS5003;35210;41.606;-87.602;2023-05-21T01:09:45;6.60;5.20;4.00
49343;PMS5003;35210;41.606;-87.602;2023-05-21T01:12:15;5.00;5.00;3.20
49343;PMS5003;35210;41.606;-87.602;2023-05-21T01:14:45;5.20;5.20;3.40
49343;PMS5003;35210;41.606;-87.602;2023-05-21T01:17:14;6.80;3.60;3.00
49343;PMS5003;35210;41.606;-87.602;2023-05-21T01:19:45;5.00;5.00;3.00
49343;PMS5003;35210;41.606;-87.602;2023-05-21T01:22:14;4.60;4.60;3.40
49343;PMS5003;35210;41.606;-87.602;2023-05-21T01:24:50;4.00;4.00;3.00
49343;PMS5003;35210;41.606;-87.602;2023-05-21T01:27:20;4.20;3.20;2.00
49343;PMS5003;35210;41.606;-87.602;2023-05-21T01:29:50;5.80;5.00;3.00
49343;PMS5003;35210;41.606;-87.602;2023-05-21T01:32:20;4.80;3.60;2.40
49343;PMS5003;35210;41.606;-87.602;2023-05-21T01:34:55;5.60;5.00;3.00
49343;PMS5003;35210;41.606;-87.602;2023-05-21T01:37:30;7.00;6.40;4.00
49343;PMS5003;35210;41.606;-87.602;2023-05-21T01:40:07;8.20;6.00;4.00
49343;PMS5003;35210;41.606;-87.602;2023-05-21T01:42:41;6.00;6.00;4.00
49343;PMS5003;35210;41.606;-87.602;2023-05-21T01:45:10;6.40;6.00;3.60
49343;PMS5003;35210;41.606;-87.602;2023-05-21T01:47:41;5.80;5.80;4.00
49343;PMS5003;35210;41.606;-87.602;2023-05-21T01:50:14;5.00;4.80;4.00
49343;PMS5003;35210;41.606;-87.602;2023-05-21T01:52:47;7.00;7.00;4.60
49343;PMS5003;35210;41.606;-87.602;2023-05-21T01:55:18;8.00;5.20;3.20
49343;PMS5003;35210;41.606;-87.602;2023-05-21T01:57:49;4.40;4.40;3.20
49343;PMS5003;35210;41.606;-87.602;2023-05-21T02:00:18;5.00;5.00;4.00
49343;PMS5003;35210;41.606;-87.602;2023-05-21T02:02:47;6.60;5.40;3.00
49343;PMS5003;35210;41.606;-87.602;2023-05-21T02:05:16;6.80;6.80;4.00
49343;PMS5003;35210;41.606;-87.602;2023-05-21T02:07:44;6.40;6.40;3.40
49343;PMS5003;35210;41.606;-87.602;2023-05-21T02:10:13;5.40;5.40;3.60
49343;PMS5003;35210;41.606;-87.602;2023-05-21T02:12:43;5.00;5.00;3.00
49343;PMS5003;35210;41.606;-87.602;2023-05-21T02:15:11;6.80;5.80;4.40
49343;PMS5003;35210;41.606;-87.602;2023-05-21T02:17:42;8.80;8.80;6.00
49343;PMS5003;35210;41.606;-87.602;2023-05-21T02:20:11;8.40;5.60;3.00
49343;PMS5003;35210;41.606;-87.602;2023-05-21T02:22:39;8.80;6.20;5.00
49343;PMS5003;35210;41.606;-87.602;2023-05-21T02:25:10;6.20;6.00;4.80
49343;PMS5003;35210;41.606;-87.602;2023-05-21T02:27:40;6.40;6.40;2.60
49343;PMS5003;35210;41.606;-87.602;2023-05-21T02:30:11;6.00;6.00;5.00
49343;PMS5003;35210;41.606;-87.602;2023-05-21T02:32:40;5.60;5.60;3.20
49343;PMS5003;35210;41.606;-87.602;2023-05-21T02:35:09;9.80;8.40;4.40
49343;PMS5003;35210;41.606;-87.602;2023-05-21T02:37:39;7.80;7.20;4.60
49343;PMS5003;35210;41.606;-87.602;2023-05-21T02:40:08;8.00;8.00;4.40
49343;PMS5003;35210;41.606;-87.602;2023-05-21T02:42:37;8.60;8.00;4.60
49343;PMS5003;35210;41.606;-87.602;2023-05-21T02:45:08;7.40;6.80;5.40
49343;PMS5003;35210;41.606;-87.602;2023-05-21T02:47:37;9.20;6.80;4.60
49343;PMS5003;35210;41.606;-87.602;2023-05-21T02:50:06;6.80;5.00;4.20
49343;PMS5003;35210;41.606;-87.602;2023-05-21T02:52:35;7.40;7.40;4.40
49343;PMS5003;35210;41.606;-87.602;2023-05-21T02:55:03;9.80;8.60;4.60
49343;PMS5003;35210;41.606;-87.602;2023-05-21T02:57:32;10.00;10.00;7.00
49343;PMS5003;35210;41.606;-87.602;2023-05-21T03:00:00;9.20;9.20;6.00
49343;PMS5003;35210;41.606;-87.602;2023-05-21T03:02:31;11.40;9.40;6.20
49343;PMS5003;35210;41.606;-87.602;2023-05-21T03:05:00;8.40;8.40;6.00
49343;PMS5003;35210;41.606;-87.602;2023-05-21T03:07:28;6.60;5.80;3.60
49343;PMS5003;35210;41.606;-87.602;2023-05-21T03:09:56;11.80;8.20;6.20
49343;PMS5003;35210;41.606;-87.602;2023-05-21T03:12:24;13.40;11.00;7.20
49343;PMS5003;35210;41.606;-87.602;2023-05-21T03:14:52;9.00;8.80;6.60
49343;PMS5003;35210;41.606;-87.602;2023-05-21T03:17:20;13.00;8.20;6.40
49343;PMS5003;35210;41.606;-87.602;2023-05-21T03:19:53;9.80;9.20;5.60
49343;PMS5003;35210;41.606;-87.602;2023-05-21T03:22:21;11.20;10.80;6.80
49343;PMS5003;35210;41.606;-87.602;2023-05-21T03:24:49;12.20;12.20;8.00
49343;PMS5003;35210;41.606;-87.602;2023-05-21T03:27:17;11.40;10.60;8.00
49343;PMS5003;35210;41.606;-87.602;2023-05-21T03:29:45;13.00;12.00;7.80
49343;PMS5003;35210;41.606;-87.602;2023-05-21T03:32:14;18.00;14.00;9.60
49343;PMS5003;35210;41.606;-87.602;2023-05-21T03:34:42;13.00;12.80;9.00
49343;PMS5003;35210;41.606;-87.602;2023-05-21T03:37:12;11.20;10.60;8.00
49343;PMS5003;35210;41.606;-87.602;2023-05-21T03:39:40;12.00;11.40;6.60
49343;PMS5003;35210;41.606;-87.602;2023-05-21T03:42:08;14.40;13.40;9.40
49343;PMS5003;35210;41.606;-87.602;2023-05-21T03:44:38;13.60;11.60;9.00
49343;PMS5003;35210;41.606;-87.602;2023-05-21T03:47:06;12.00;12.00;8.40
49343;PMS5003;35210;41.606;-87.602;2023-05-21T03:49:35;18.60;16.40;10.00
49343;PMS5003;35210;41.606;-87.602;2023-05-21T03:52:03;8.60;8.60;7.40
49343;PMS5003;35210;41.606;-87.602;2023-05-21T03:54:33;12.60;10.60;8.40
49343;PMS5003;35210;41.606;-87.602;2023-05-21T03:57:01;15.20;12.20;8.00
49343;PMS5003;35210;41.606;-87.602;2023-05-21T03:59:30;13.60;12.00;8.60
49343;PMS5003;35210;41.606;-87.602;2023-05-21T04:01:58;11.60;10.20;7.00
49343;PMS5003;35210;41.606;-87.602;2023-05-21T04:04:26;13.60;10.80;8.00
49343;PMS5003;35210;41.606;-87.602;2023-05-21T04:06:54;11.60;8.40;5.20
49343;PMS5003;35210;41.606;-87.602;2023-05-21T04:09:25;11.60;9.80;8.00
49343;PMS5003;35210;41.606;-87.602;2023-05-21T04:11:55;14.60;11.80;8.60
49343;PMS5003;35210;41.606;-87.602;2023-05-21T04:14:25;12.20;10.20;9.00
49343;PMS5003;35210;41.606;-87.602;2023-05-21T04:16:53;9.00;9.00;6.00
49343;PMS5003;35210;41.606;-87.602;2023-05-21T04:19:21;12.00;12.00;8.00
49343;PMS5003;35210;41.606;-87.602;2023-05-21T04:21:49;10.60;10.60;7.20
49343;PMS5003;35210;41.606;-87.602;2023-05-21T04:24:17;10.20;9.40;7.20
49343;PMS5003;35210;41.606;-87.602;2023-05-21T04:26:46;13.20;13.00;9.20
49343;PMS5003;35210;41.606;-87.602;2023-05-21T04:29:16;12.80;11.00;9.00
49343;PMS5003;35210;41.606;-87.602;2023-05-21T04:31:45;7.80;7.80;4.40
49343;PMS5003;35210;41.606;-87.602;2023-05-21T04:34:13;12.40;12.00;8.00
49343;PMS5003;35210;41.606;-87.602;2023-05-21T04:36:44;13.20;13.20;9.20
49343;PMS5003;35210;41.606;-87.602;2023-05-21T04:39:13;12.00;12.00;9.00
49343;PMS5003;35210;41.606;-87.602;2023-05-21T04:41:41;11.60;10.00;8.00
49343;PMS5003;35210;41.606;-87.602;2023-05-21T04:44:09;13.00;11.60;7.80
49343;PMS5003;35210;41.606;-87.602;2023-05-21T04:46:42;18.00;15.20;9.40
49343;PMS5003;35210;41.606;-87.602;2023-05-21T04:49:10;15.20;12.40;7.60
49343;PMS5003;35210;41.606;-87.602;2023-05-21T04:51:38;13.80;11.00;7.80
49343;PMS5003;35210;41.606;-87.602;2023-05-21T04:54:07;14.20;12.20;8.20
49343;PMS5003;35210;41.606;-87.602;2023-05-21T04:56:35;15.00;14.00;10.00
49343;PMS5003;35210;41.606;-87.602;2023-05-21T04:59:03;15.40;15.00;10.60
49343;PMS5003;35210;41.606;-87.602;2023-05-21T05:01:32;14.00;12.60;8.80
49343;PMS5003;35210;41.606;-87.602;2023-05-21T05:04:05;13.00;10.60;8.20
49343;PMS5003;35210;41.606;-87.602;2023-05-21T05:06:33;9.40;9.40;6.40
49343;PMS5003;35210;41.606;-87.602;2023-05-21T05:09:01;10.80;10.60;7.60
49343;PMS5003;35210;41.606;-87.602;2023-05-21T05:11:30;12.00;12.00;7.00
49343;PMS5003;35210;41.606;-87.602;2023-05-21T05:13:58;16.20;15.40;10.00
49343;PMS5003;35210;41.606;-87.602;2023-05-21T05:16:26;11.00;9.60;6.40
49343;PMS5003;35210;41.606;-87.602;2023-05-21T05:18:54;11.80;11.60;8.60
49343;PMS5003;35210;41.606;-87.602;2023-05-21T05:21:24;15.80;12.40;8.60
49343;PMS5003;35210;41.606;-87.602;2023-05-21T05:23:52;15.20;12.60;8.80
49343;PMS5003;35210;41.606;-87.602;2023-05-21T05:26:20;15.60;13.40;8.80
49343;PMS5003;35210;41.606;-87.602;2023-05-21T05:28:48;16.80;15.40;10.60
49343;PMS5003;35210;41.606;-87.602;2023-05-21T05:31:17;17.40;13.80;8.60
49343;PMS5003;35210;41.606;-87.602;2023-05-21T05:33:45;14.40;12.20;9.40
49343;PMS5003;35210;41.606;-87.602;2023-05-21T05:36:14;14.80;12.60;9.00
49343;PMS5003;35210;41.606;-87.602;2023-05-21T05:38:44;12.60;11.80;8.60
49343;PMS5003;35210;41.606;-87.602;2023-05-21T05:41:12;14.00;13.00;9.20
49343;PMS5003;35210;41.606;-87.602;2023-05-21T05:43:40;19.40;14.80;11.00
49343;PMS5003;35210;41.606;-87.602;2023-05-21T05:46:08;16.40;14.20;9.80
49343;PMS5003;35210;41.606;-87.602;2023-05-21T05:48:36;18.60;15.60;10.00
49343;PMS5003;35210;41.606;-87.602;2023-05-21T05:51:05;14.40;14.40;10.40
49343;PMS5003;35210;41.606;-87.602;2023-05-21T05:53:33;16.00;14.40;11.00
49343;PMS5003;35210;41.606;-87.602;2023-05-21T05:56:03;17.80;16.80;11.80
49343;PMS5003;35210;41.606;-87.602;2023-05-21T05:58:32;15.00;13.60;8.00
49343;PMS5003;35210;41.606;-87.602;2023-05-21T06:01:00;18.80;17.80;12.00
49343;PMS5003;35210;41.606;-87.602;2023-05-21T06:03:28;18.60;17.00;12.20
49343;PMS5003;35210;41.606;-87.602;2023-05-21T06:05:56;17.60;16.20;11.00
49343;PMS5003;35210;41.606;-87.602;2023-05-21T06:08:24;20.00;19.40;14.00
49343;PMS5003;35210;41.606;-87.602;2023-05-21T06:10:52;15.80;14.00;8.20
49343;PMS5003;35210;41.606;-87.602;2023-05-21T06:13:22;18.80;15.40;12.00
49343;PMS5003;35210;41.606;-87.602;2023-05-21T06:15:51;17.80;16.60;13.00
49343;PMS5003;35210;41.606;-87.602;2023-05-21T06:18:19;18.60;18.60;13.00
49343;PMS5003;35210;41.606;-87.602;2023-05-21T06:20:48;21.40;20.00;13.20
49343;PMS5003;35210;41.606;-87.602;2023-05-21T06:23:16;21.80;19.80;13.60
49343;PMS5003;35210;41.606;-87.602;2023-05-21T06:25:44;19.40;15.60;10.80
49343;PMS5003;35210;41.606;-87.602;2023-05-21T06:28:12;15.40;15.40;11.00
49343;PMS5003;35210;41.606;-87.602;2023-05-21T06:30:43;15.40;14.80;11.00
49343;PMS5003;35210;41.606;-87.602;2023-05-21T06:33:11;18.20;16.40;11.80
49343;PMS5003;35210;41.606;-87.602;2023-05-21T06:35:40;12.80;12.20;8.80
49343;PMS5003;35210;41.606;-87.602;2023-05-21T06:38:08;17.60;15.20;11.80
49343;PMS5003;35210;41.606;-87.602;2023-05-21T06:40:36;15.40;13.00;9.00
49343;PMS5003;35210;41.606;-87.602;2023-05-21T06:43:04;13.40;13.00;10.00
49343;PMS5003;35210;41.606;-87.602;2023-05-21T06:45:32;14.40;14.40;9.80
49343;PMS5003;35210;41.606;-87.602;2023-05-21T06:48:02;13.20;11.40;8.60
49343;PMS5003;35210;41.606;-87.602;2023-05-21T06:50:31;15.00;13.00;8.60
49343;PMS5003;35210;41.606;-87.602;2023-05-21T06:52:59;9.80;9.20;7.00
49343;PMS5003;35210;41.606;-87.602;2023-05-21T06:55:27;16.20;13.20;9.00
49343;PMS5003;35210;41.606;-87.602;2023-05-21T06:57:56;13.40;12.40;10.00
49343;PMS5003;35210;41.606;-87.602;2023-05-21T07:00:24;13.20;11.40;9.40
49343;PMS5003;35210;41.606;-87.602;2023-05-21T07:02:52;13.60;11.40;8.00
49343;PMS5003;35210;41.606;-87.602;2023-05-21T07:05:22;12.40;12.40;10.00
49343;PMS5003;35210;41.606;-87.602;2023-05-21T07:07:50;13.40;11.40;9.00
49343;PMS5003;35210;41.606;-87.602;2023-05-21T07:10:18;17.00;14.20;9.40
49343;PMS5003;35210;41.606;-87.602;2023-05-21T07:12:47;13.60;11.80;9.80
49343;PMS5003;35210;41.606;-87.602;2023-05-21T07:15:15;16.60;14.20;9.40
49343;PMS5003;35210;41.606;-87.602;2023-05-21T07:17:43;15.80;15.80;11.00
49343;PMS5003;35210;41.606;-87.602;2023-05-21T07:20:12;16.00;16.00;10.20
49343;PMS5003;35210;41.606;-87.602;2023-05-21T07:22:42;16.00;13.80;9.20
49343;PMS5003;35210;41.606;-87.602;2023-05-21T07:25:10;18.20;16.60;10.40
49343;PMS5003;35210;41.606;-87.602;2023-05-21T07:27:38;15.80;12.60;8.20
49343;PMS5003;35210;41.606;-87.602;2023-05-21T07:30:07;14.60;13.00;9.00
49343;PMS5003;35210;41.606;-87.602;2023-05-21T07:32:36;15.00;12.00;8.60
49343;PMS5003;35210;41.606;-87.602;2023-05-21T07:35:04;17.00;14.00;10.00
49343;PMS5003;35210;41.606;-87.602;2023-05-21T07:37:33;12.80;12.60;8.80
49343;PMS5003;35210;41.606;-87.602;2023-05-21T07:40:04;16.80;11.60;8.20
49343;PMS5003;35210;41.606;-87.602;2023-05-21T07:42:33;19.40;14.00;9.00
49343;PMS5003;35210;41.606;-87.602;2023-05-21T07:45:01;16.20;13.40;9.00
49343;PMS5003;35210;41.606;-87.602;2023-05-21T07:47:29;15.00;14.00;9.00
49343;PMS5003;35210;41.606;-87.602;2023-05-21T07:49:57;11.00;9.60;8.00
49343;PMS5003;35210;41.606;-87.602;2023-05-21T07:52:26;14.40;13.60;8.60
49343;PMS5003;35210;41.606;-87.602;2023-05-21T07:54:54;14.40;11.00;7.60
49343;PMS5003;35210;41.606;-87.602;2023-05-21T07:57:24;9.00;8.60;5.40
49343;PMS5003;35210;41.606;-87.602;2023-05-21T07:59:52;13.20;11.80;7.00
49343;PMS5003;35210;41.606;-87.602;2023-05-21T08:02:21;13.00;11.00;8.00
49343;PMS5003;35210;41.606;-87.602;2023-05-21T08:04:49;13.60;11.80;8.00
49343;PMS5003;35210;41.606;-87.602;2023-05-21T08:07:17;17.20;12.40;8.00
49343;PMS5003;35210;41.606;-87.602;2023-05-21T08:09:46;11.00;10.60;8.40
49343;PMS5003;35210;41.606;-87.602;2023-05-21T08:12:14;9.80;9.80;7.20
49343;PMS5003;35210;41.606;-87.602;2023-05-21T08:14:45;11.80;10.00;6.60
49343;PMS5003;35210;41.606;-87.602;2023-05-21T08:17:14;12.40;9.20;6.80
49343;PMS5003;35210;41.606;-87.602;2023-05-21T08:19:43;9.20;9.00;6.00
49343;PMS5003;35210;41.606;-87.602;2023-05-21T08:22:15;9.20;9.00;5.80
49343;PMS5003;35210;41.606;-87.602;2023-05-21T08:24:43;8.60;8.60;5.00
49343;PMS5003;35210;41.606;-87.602;2023-05-21T08:27:11;8.00;7.60;5.80
49343;PMS5003;35210;41.606;-87.602;2023-05-21T08:29:40;10.00;8.80;5.00
49343;PMS5003;35210;41.606;-87.602;2023-05-21T08:32:10;10.80;9.40;6.00
49343;PMS5003;35210;41.606;-87.602;2023-05-21T08:34:38;8.20;7.20;5.00
49343;PMS5003;35210;41.606;-87.602;2023-05-21T08:37:07;8.20;8.00;5.80
49343;PMS5003;35210;41.606;-87.602;2023-05-21T08:39:35;10.60;9.80;6.20
49343;PMS5003;35210;41.606;-87.602;2023-05-21T08:42:07;12.00;10.40;8.00
49343;PMS5003;35210;41.606;-87.602;2023-05-21T08:44:42;8.60;8.20;6.00
49343;PMS5003;35210;41.606;-87.602;2023-05-21T08:47:20;10.40;8.40;6.00
49343;PMS5003;35210;41.606;-87.602;2023-05-21T08:49:49;8.40;8.40;5.40
49343;PMS5003;35210;41.606;-87.602;2023-05-21T08:52:18;11.60;10.60;6.20
49343;PMS5003;35210;41.606;-87.602;2023-05-21T08:54:47;6.40;6.40;5.60
49343;PMS5003;35210;41.606;-87.602;2023-05-21T08:57:16;8.20;8.20;6.20
49343;PMS5003;35210;41.606;-87.602;2023-05-21T08:59:47;10.40;10.40;6.40
49343;PMS5003;35210;41.606;-87.602;2023-05-21T09:02:15;7.60;7.60;5.40
49343;PMS5003;35210;41.606;-87.602;2023-05-21T09:04:46;9.00;6.80;5.00
49343;PMS5003;35210;41.606;-87.602;2023-05-21T09:07:16;10.80;10.80;7.00
49343;PMS5003;35210;41.606;-87.602;2023-05-21T09:09:46;10.20;9.80;6.60
49343;PMS5003;35210;41.606;-87.602;2023-05-21T09:12:21;9.20;9.20;5.80
49343;PMS5003;35210;41.606;-87.602;2023-05-21T09:14:51;10.00;9.60;6.60
49343;PMS5003;35210;41.606;-87.602;2023-05-21T09:17:19;8.60;8.40;5.60
49343;PMS5003;35210;41.606;-87.602;2023-05-21T09:20:09;11.60;8.60;5.00
49343;PMS5003;35210;41.606;-87.602;2023-05-21T09:22:39;10.00;10.00;7.20
49343;PMS5003;35210;41.606;-87.602;2023-05-21T09:25:09;11.00;8.80;6.00
49343;PMS5003;35210;41.606;-87.602;2023-05-21T09:27:38;7.20;7.20;5.00
49343;PMS5003;35210;41.606;-87.602;2023-05-21T09:30:08;10.00;8.00;4.80
49343;PMS5003;35210;41.606;-87.602;2023-05-21T09:32:37;9.60;9.60;6.20
49343;PMS5003;35210;41.606;-87.602;2023-05-21T09:35:07;10.20;8.00;5.80
49343;PMS5003;35210;41.606;-87.602;2023-05-21T09:37:38;7.00;7.00;4.80
49343;PMS5003;35210;41.606;-87.602;2023-05-21T09:40:11;7.00;5.80;4.40
49343;PMS5003;35210;41.606;-87.602;2023-05-21T09:42:41;8.00;7.60;7.00
49343;PMS5003;35210;41.606;-87.602;2023-05-21T09:45:11;10.20;10.00;6.40
49343;PMS5003;35210;41.606;-87.602;2023-05-21T09:47:43;7.60;7.40;5.60
49343;PMS5003;35210;41.606;-87.602;2023-05-21T09:50:16;9.80;7.00;5.80
49343;PMS5003;35210;41.606;-87.602;2023-05-21T09:52:45;10.80;8.60;6.00
49343;PMS5003;35210;41.606;-87.602;2023-05-21T09:55:14;10.80;8.60;5.60
49343;PMS5003;35210;41.606;-87.602;2023-05-21T09:57:43;8.40;8.00;5.40
49343;PMS5003;35210;41.606;-87.602;2023-05-21T10:00:16;7.60;7.60;5.40
49343;PMS5003;35210;41.606;-87.602;2023-05-21T10:02:45;10.40;7.80;5.40
49343;PMS5003;35210;41.606;-87.602;2023-05-21T10:05:16;7.40;7.20;5.00
49343;PMS5003;35210;41.606;-87.602;2023-05-21T10:07:49;9.00;5.80;4.40
49343;PMS5003;35210;41.606;-87.602;2023-05-21T10:10:19;9.00;8.00;5.80
49343;PMS5003;35210;41.606;-87.602;2023-05-21T10:12:49;6.40;6.40;4.60
49343;PMS5003;35210;41.606;-87.602;2023-05-21T10:15:22;5.40;4.00;4.00
49343;PMS5003;35210;41.606;-87.602;2023-05-21T10:17:54;10.40;7.80;4.60
49343;PMS5003;35210;41.606;-87.602;2023-05-21T10:20:24;7.00;6.60;5.00
49343;PMS5003;35210;41.606;-87.602;2023-05-21T10:22:52;8.60;7.60;5.00
49343;PMS5003;35210;41.606;-87.602;2023-05-21T10:25:22;4.00;4.00;1.40
49343;PMS5003;35210;41.606;-87.602;2023-05-21T10:27:51;10.40;7.80;5.00
49343;PMS5003;35210;41.606;-87.602;2023-05-21T10:30:21;8.40;8.20;5.00
49343;PMS5003;35210;41.606;-87.602;2023-05-21T10:32:50;9.00;8.40;5.00
49343;PMS5003;35210;41.606;-87.602;2023-05-21T10:35:21;8.40;8.40;5.00
49343;PMS5003;35210;41.606;-87.602;2023-05-21T10:37:52;8.40;8.40;5.00
49343;PMS5003;35210;41.606;-87.602;2023-05-21T10:40:23;10.20;7.00;4.00
49343;PMS5003;35210;41.606;-87.602;2023-05-21T10:43:00;8.20;6.40;4.00
49343;PMS5003;35210;41.606;-87.602;2023-05-21T10:45:51;7.60;5.60;4.20
49343;PMS5003;35210;41.606;-87.602;2023-05-21T10:48:36;7.20;6.80;5.20
49343;PMS5003;35210;41.606;-87.602;2023-05-21T10:51:19;9.00;7.60;5.00
49343;PMS5003;35210;41.606;-87.602;2023-05-21T10:57:05;8.40;7.40;4.00
49343;PMS5003;35210;41.606;-87.602;2023-05-21T10:59:42;7.00;7.00;5.00
49343;PMS5003;35210;41.606;-87.602;2023-05-21T11:02:12;7.80;6.00;5.00
49343;PMS5003;35210;41.606;-87.602;2023-05-21T11:04:43;8.00;8.00;6.20
49343;PMS5003;35210;41.606;-87.602;2023-05-21T11:07:17;7.80;6.20;4.00
49343;PMS5003;35210;41.606;-87.602;2023-05-21T11:09:50;9.00;8.40;6.00
49343;PMS5003;35210;41.606;-87.602;2023-05-21T11:12:20;10.00;8.40;5.00
49343;PMS5003;35210;41.606;-87.602;2023-05-21T11:14:54;9.80;9.00;7.00
49343;PMS5003;35210;41.606;-87.602;2023-05-21T11:20:07;7.60;7.60;5.00
49343;PMS5003;35210;41.606;-87.602;2023-05-21T11:22:38;9.80;7.20;5.00
49343;PMS5003;35210;41.606;-87.602;2023-05-21T11:25:06;12.80;10.80;6.80
49343;PMS5003;35210;41.606;-87.602;2023-05-21T11:27:35;9.80;9.80;6.00
49343;PMS5003;35210;41.606;-87.602;2023-05-21T11:30:04;9.60;9.40;5.40
49343;PMS5003;35210;41.606;-87.602;2023-05-21T11:32:35;8.20;7.40;5.00
49343;PMS5003;35210;41.606;-87.602;2023-05-21T11:35:05;8.60;8.60;6.00
49343;PMS5003;35210;41.606;-87.602;2023-05-21T11:37:34;4.00;2.20;0.20
49343;PMS5003;35210;41.606;-87.602;2023-05-21T11:40:21;8.80;8.00;5.20
49343;PMS5003;35210;41.606;-87.602;2023-05-21T11:42:50;8.40;7.20;4.60
49343;PMS5003;35210;41.606;-87.602;2023-05-21T11:45:20;6.00;6.00;4.40
49343;PMS5003;35210;41.606;-87.602;2023-05-21T11:47:49;9.40;7.20;4.40
49343;PMS5003;35210;41.606;-87.602;2023-05-21T11:50:18;5.40;5.40;4.00
49343;PMS5003;35210;41.606;-87.602;2023-05-21T11:52:46;9.40;6.80;4.40
49343;PMS5003;35210;41.606;-87.602;2023-05-21T11:55:21;7.80;6.80;4.00
49343;PMS5003;35210;41.606;-87.602;2023-05-21T11:57:51;8.40;7.40;4.60
49343;PMS5003;35210;41.606;-87.602;2023-05-21T12:00:21;9.40;6.00;4.00
49343;PMS5003;35210;41.606;-87.602;2023-05-21T12:02:49;6.80;5.80;4.00
49343;PMS5003;35210;41.606;-87.602;2023-05-21T12:05:19;10.20;8.60;5.40
49343;PMS5003;35210;41.606;-87.602;2023-05-21T12:07:48;5.20;4.60;2.00
49343;PMS5003;35210;41.606;-87.602;2023-05-21T12:10:20;9.60;7.00;4.00
49343;PMS5003;35210;41.606;-87.602;2023-05-21T12:12:49;5.00;5.00;5.00
49343;PMS5003;35210;41.606;-87.602;2023-05-21T12:15:18;7.00;7.00;5.00
49343;PMS5003;35210;41.606;-87.602;2023-05-21T12:17:48;7.20;7.20;5.00
49343;PMS5003;35210;41.606;-87.602;2023-05-21T12:20:17;7.60;7.60;6.00
49343;PMS5003;35210;41.606;-87.602;2023-05-21T12:22:47;3.00;3.00;0.00
49343;PMS5003;35210;41.606;-87.602;2023-05-21T12:25:16;6.00;6.00;5.00
49343;PMS5003;35210;41.606;-87.602;2023-05-21T12:27:48;6.80;5.40;4.00
49343;PMS5003;35210;41.606;-87.602;2023-05-21T12:30:22;7.00;7.00;5.00
49343;PMS5003;35210;41.606;-87.602;2023-05-21T12:32:51;8.60;7.20;5.00
49343;PMS5003;35210;41.606;-87.602;2023-05-21T12:35:20;7.00;6.60;4.20
49343;PMS5003;35210;41.606;-87.602;2023-05-21T12:37:48;5.40;5.40;3.40
49343;PMS5003;35210;41.606;-87.602;2023-05-21T12:40:17;5.60;5.60;4.00
49343;PMS5003;35210;41.606;-87.602;2023-05-21T12:42:48;8.20;6.00;4.00
49343;PMS5003;35210;41.606;-87.602;2023-05-21T12:45:17;5.80;5.80;3.60
49343;PMS5003;35210;41.606;-87.602;2023-05-21T12:47:47;3.60;3.60;1.80
49343;PMS5003;35210;41.606;-87.602;2023-05-21T12:50:20;9.40;5.60;4.60
49343;PMS5003;35210;41.606;-87.602;2023-05-21T12:52:52;6.40;6.40;5.40
49343;PMS5003;35210;41.606;-87.602;2023-05-21T12:55:22;10.20;8.00;5.80
49343;PMS5003;35210;41.606;-87.602;2023-05-21T12:58:00;9.00;6.60;5.00
49343;PMS5003;35210;41.606;-87.602;2023-05-21T13:00:32;8.00;6.40;4.40
49343;PMS5003;35210;41.606;-87.602;2023-05-21T13:03:01;6.80;6.00;4.20
49343;PMS5003;35210;41.606;-87.602;2023-05-21T13:05:30;9.80;7.40;4.00
49343;PMS5003;35210;41.606;-87.602;2023-05-21T13:07:58;8.20;7.20;4.20
49343;PMS5003;35210;41.606;-87.602;2023-05-21T13:10:27;9.40;7.20;4.40
49343;PMS5003;35210;41.606;-87.602;2023-05-21T13:12:55;3.60;3.60;1.80
49343;PMS5003;35210;41.606;-87.602;2023-05-21T13:15:24;5.40;4.60;3.60
49343;PMS5003;35210;41.606;-87.602;2023-05-21T13:17:52;9.40;7.40;4.60
49343;PMS5003;35210;41.606;-87.602;2023-05-21T13:20:21;7.00;6.20;4.00
49343;PMS5003;35210;41.606;-87.602;2023-05-21T13:22:51;6.40;6.20;4.00
49343;PMS5003;35210;41.606;-87.602;2023-05-21T13:25:20;4.80;4.80;3.80
49343;PMS5003;35210;41.606;-87.602;2023-05-21T13:27:50;5.20;5.00;3.00
49343;PMS5003;35210;41.606;-87.602;2023-05-21T13:30:18;6.00;4.40;2.20
49343;PMS5003;35210;41.606;-87.602;2023-05-21T13:32:49;4.20;4.20;3.00
49343;PMS5003;35210;41.606;-87.602;2023-05-21T13:35:18;4.40;4.40;3.00
49343;PMS5003;35210;41.606;-87.602;2023-05-21T13:37:46;6.00;4.60;3.00
49343;PMS5003;35210;41.606;-87.602;2023-05-21T13:40:14;6.40;4.60;3.80
49343;PMS5003;35210;41.606;-87.602;2023-05-21T13:42:43;7.80;5.60;3.00
49343;PMS5003;35210;41.606;-87.602;2023-05-21T13:45:13;5.60;5.00;3.00
49343;PMS5003;35210;41.606;-87.602;2023-05-21T13:47:42;5.40;5.40;4.40
49343;PMS5003;35210;41.606;-87.602;2023-05-21T13:50:14;5.60;5.00;3.00
49343;PMS5003;35210;41.606;-87.602;2023-05-21T13:52:42;6.00;6.00;4.00
49343;PMS5003;35210;41.606;-87.602;2023-05-21T13:55:10;6.40;5.20;4.00
49343;PMS5003;35210;41.606;-87.602;2023-05-21T13:57:40;6.20;5.60;4.00
49343;PMS5003;35210;41.606;-87.602;2023-05-21T14:00:08;4.80;4.80;3.40
49343;PMS5003;35210;41.606;-87.602;2023-05-21T14:02:40;5.00;5.00;4.00
49343;PMS5003;35210;41.606;-87.602;2023-05-21T14:05:09;8.40;7.40;4.00